Terminal Aerodrome Forecast
Issued by NWS

Home | Current Version | Previous Version | Text Only | Print | Product List | Glossary On
Versions: 1 2 3 4 5 6 7 8 9 10 11 12 13 14 15 16 17 18
491
FTUS46 KSEW 120520
TAFOLM
TAF
KOLM 120520Z 1206/1306 22006KT P6SM SCT200
     FM121200 00000KT 1/2SM FZFG BKN001 BKN050
     FM121500 00000KT 3SM BR BKN050
     FM122000 VRB03KT P6SM SCT050=

USA.gov is the U.S. government's official web portal to all federal, state and local government web resources and services.